PAL1812 RPMD-RPLL
Flight info
| Callsign | PAL1812 |
|---|---|
| Flight time | 1h 19m |
| Altitude | 40000 |
| Route | ANKIN3R ANKIN B473 LAIYA LAIYA3R |
| Aircraft | A359/H-SDE2E3GHIJ3J4J5LM1ORWXY/LB1D1 |
Departure
| Time | 2026-05-05 08:44 |
|---|---|
| Airport | Francisco Bangoy International Airport (RPMD) |
Arrival
| Time | 2026-05-05 10:04 |
|---|---|
| Airport | Ninoy Aquino International Airport (RPLL) |
| Time | Latitude | Longitude | Altitude | Speed | Heading |
|---|---|---|---|---|---|
| 2026-05-05 08:27 | 7.12982 | 125.64605 | 108 ft | 0 kts | 320° |
| 2026-05-05 08:35 | 7.12973 | 125.64613 | 106 ft | 2 kts | 318° |
| 2026-05-05 08:35 | 7.12961 | 125.64624 | 107 ft | 2 kts | 315° |
| 2026-05-05 08:36 | 7.12950 | 125.64636 | 106 ft | 2 kts | 310° |
| 2026-05-05 08:36 | 7.12940 | 125.64650 | 106 ft | 2 kts | 297° |
| 2026-05-05 08:36 | 7.12935 | 125.64666 | 105 ft | 2 kts | 264° |
| 2026-05-05 08:36 | 7.12940 | 125.64680 | 104 ft | 2 kts | 233° |
| 2026-05-05 08:37 | 7.12943 | 125.64684 | 104 ft | 0 kts | 231° |
| 2026-05-05 08:38 | 7.12941 | 125.64681 | 104 ft | 3 kts | 231° |
| 2026-05-05 08:39 | 7.12921 | 125.64658 | 105 ft | 8 kts | 228° |
| 2026-05-05 08:39 | 7.12876 | 125.64607 | 107 ft | 11 kts | 229° |
| 2026-05-05 08:39 | 7.12818 | 125.64539 | 107 ft | 14 kts | 229° |
| 2026-05-05 08:39 | 7.12745 | 125.64456 | 107 ft | 17 kts | 220° |
| 2026-05-05 08:40 | 7.12654 | 125.64481 | 107 ft | 14 kts | 138° |
| 2026-05-05 08:40 | 7.12642 | 125.64491 | 107 ft | 0 kts | 139° |
| 2026-05-05 08:40 | 7.12632 | 125.64500 | 107 ft | 7 kts | 139° |
| 2026-05-05 08:40 | 7.12583 | 125.64540 | 107 ft | 12 kts | 150° |
| 2026-05-05 08:41 | 7.12501 | 125.64514 | 105 ft | 17 kts | 224° |
| 2026-05-05 08:41 | 7.12401 | 125.64400 | 106 ft | 24 kts | 229° |
| 2026-05-05 08:41 | 7.12288 | 125.64268 | 107 ft | 27 kts | 229° |
| 2026-05-05 08:41 | 7.12162 | 125.64121 | 107 ft | 29 kts | 229° |
| 2026-05-05 08:42 | 7.12028 | 125.63966 | 108 ft | 30 kts | 229° |
| 2026-05-05 08:42 | 7.11885 | 125.63801 | 108 ft | 32 kts | 229° |
| 2026-05-05 08:42 | 7.11772 | 125.63667 | 106 ft | 16 kts | 236° |
| 2026-05-05 08:42 | 7.11752 | 125.63552 | 106 ft | 16 kts | 243° |
| 2026-05-05 08:43 | 7.11687 | 125.63568 | 106 ft | 11 kts | 87° |
| 2026-05-05 08:43 | 7.11709 | 125.63598 | 106 ft | 0 kts | 49° |
| 2026-05-05 08:43 | 7.11713 | 125.63602 | 106 ft | 7 kts | 49° |
| 2026-05-05 08:43 | 7.11892 | 125.63808 | 108 ft | 77 kts | 49° |
| 2026-05-05 08:44 | 7.12404 | 125.64403 | 106 ft | 145 kts | 49° |
| 2026-05-05 08:44 | 7.13127 | 125.65249 | 649 ft | 160 kts | 49° |
| 2026-05-05 08:44 | 7.13773 | 125.66145 | 1458 ft | 164 kts | 63° |
| 2026-05-05 08:44 | 7.14390 | 125.67218 | 1786 ft | 191 kts | 51° |
| 2026-05-05 08:45 | 7.15624 | 125.67925 | 2066 ft | 223 kts | 12° |
| 2026-05-05 08:45 | 7.17226 | 125.67710 | 2519 ft | 245 kts | 333° |
| 2026-05-05 08:45 | 7.18633 | 125.66714 | 3337 ft | 249 kts | 326° |
| 2026-05-05 08:45 | 7.20141 | 125.65840 | 4175 ft | 253 kts | 333° |
| 2026-05-05 08:46 | 7.21680 | 125.64990 | 4997 ft | 258 kts | 332° |
| 2026-05-05 08:46 | 7.23280 | 125.64071 | 5820 ft | 264 kts | 331° |
| 2026-05-05 08:46 | 7.24863 | 125.63146 | 6645 ft | 269 kts | 330° |
| 2026-05-05 08:46 | 7.26475 | 125.62195 | 7473 ft | 273 kts | 330° |
| 2026-05-05 08:47 | 7.28141 | 125.61210 | 8379 ft | 277 kts | 330° |
| 2026-05-05 08:47 | 7.29827 | 125.60206 | 9254 ft | 283 kts | 330° |
| 2026-05-05 08:47 | 7.31530 | 125.59194 | 10114 ft | 288 kts | 330° |
| 2026-05-05 08:47 | 7.33308 | 125.58137 | 10655 ft | 306 kts | 330° |
| 2026-05-05 08:48 | 7.35201 | 125.57010 | 11038 ft | 326 kts | 330° |
| 2026-05-05 08:48 | 7.37197 | 125.55822 | 11565 ft | 340 kts | 331° |
| 2026-05-05 08:48 | 7.39262 | 125.54590 | 12233 ft | 348 kts | 331° |
| 2026-05-05 08:48 | 7.41364 | 125.53338 | 12924 ft | 355 kts | 331° |
| 2026-05-05 08:49 | 7.43503 | 125.52065 | 13617 ft | 361 kts | 331° |
| 2026-05-05 08:49 | 7.45457 | 125.50902 | 14196 ft | 365 kts | 331° |
| 2026-05-05 08:49 | 7.47665 | 125.49588 | 14858 ft | 369 kts | 331° |
| 2026-05-05 08:49 | 7.49894 | 125.48259 | 15508 ft | 374 kts | 331° |
| 2026-05-05 08:50 | 7.52115 | 125.46936 | 16144 ft | 378 kts | 331° |
| 2026-05-05 08:50 | 7.54376 | 125.45587 | 16764 ft | 382 kts | 331° |
| 2026-05-05 08:50 | 7.56693 | 125.44205 | 17393 ft | 386 kts | 331° |
| 2026-05-05 08:50 | 7.59018 | 125.42819 | 17991 ft | 391 kts | 331° |
| 2026-05-05 08:51 | 7.61369 | 125.41416 | 18540 ft | 395 kts | 331° |
| 2026-05-05 08:51 | 7.63651 | 125.39831 | 19077 ft | 400 kts | 321° |
| 2026-05-05 08:51 | 7.65591 | 125.37798 | 19632 ft | 405 kts | 310° |
| 2026-05-05 08:51 | 7.67344 | 125.35548 | 20153 ft | 409 kts | 309° |
| 2026-05-05 08:52 | 7.69094 | 125.33262 | 20722 ft | 412 kts | 309° |
| 2026-05-05 08:52 | 7.70834 | 125.31001 | 21292 ft | 416 kts | 309° |
| 2026-05-05 08:52 | 7.72608 | 125.28704 | 21847 ft | 419 kts | 309° |
| 2026-05-05 08:52 | 7.74419 | 125.26362 | 22392 ft | 423 kts | 309° |
| 2026-05-05 08:53 | 7.76235 | 125.24016 | 22920 ft | 427 kts | 309° |
| 2026-05-05 08:53 | 7.78076 | 125.21640 | 23453 ft | 430 kts | 309° |
| 2026-05-05 08:53 | 7.79926 | 125.19252 | 23896 ft | 434 kts | 309° |
| 2026-05-05 08:53 | 7.81779 | 125.16859 | 24348 ft | 437 kts | 309° |
| 2026-05-05 08:54 | 7.83681 | 125.14404 | 24828 ft | 440 kts | 309° |
| 2026-05-05 08:54 | 7.85568 | 125.11967 | 25332 ft | 443 kts | 309° |
| 2026-05-05 08:54 | 7.87466 | 125.09515 | 25866 ft | 446 kts | 309° |
| 2026-05-05 08:54 | 7.89373 | 125.07051 | 26375 ft | 449 kts | 309° |
| 2026-05-05 08:55 | 7.91308 | 125.04552 | 26915 ft | 452 kts | 309° |
| 2026-05-05 08:55 | 7.93229 | 125.02069 | 27437 ft | 455 kts | 309° |
| 2026-05-05 08:55 | 7.95189 | 124.99539 | 27983 ft | 458 kts | 309° |
| 2026-05-05 08:55 | 7.97290 | 124.97124 | 28509 ft | 460 kts | 317° |
| 2026-05-05 08:56 | 7.99688 | 124.94972 | 29055 ft | 462 kts | 320° |
| 2026-05-05 08:56 | 8.02174 | 124.92906 | 29570 ft | 465 kts | 322° |
| 2026-05-05 08:56 | 8.04744 | 124.90838 | 30061 ft | 467 kts | 322° |
| 2026-05-05 08:56 | 8.07259 | 124.88831 | 30465 ft | 470 kts | 322° |
| 2026-05-05 08:57 | 8.09837 | 124.86767 | 30876 ft | 473 kts | 322° |
| 2026-05-05 08:57 | 8.12419 | 124.84688 | 31296 ft | 475 kts | 322° |
| 2026-05-05 08:57 | 8.15000 | 124.82597 | 31689 ft | 478 kts | 321° |
| 2026-05-05 08:57 | 8.17609 | 124.80476 | 32102 ft | 480 kts | 321° |
| 2026-05-05 08:58 | 8.20211 | 124.78354 | 32513 ft | 483 kts | 321° |
| 2026-05-05 08:58 | 8.22824 | 124.76220 | 32913 ft | 484 kts | 321° |
| 2026-05-05 08:58 | 8.25459 | 124.74068 | 33312 ft | 486 kts | 321° |
| 2026-05-05 08:58 | 8.28098 | 124.71914 | 33685 ft | 489 kts | 321° |
| 2026-05-05 08:59 | 8.30750 | 124.69749 | 34009 ft | 491 kts | 321° |
| 2026-05-05 08:59 | 8.33378 | 124.67603 | 34297 ft | 493 kts | 321° |
| 2026-05-05 08:59 | 8.36044 | 124.65427 | 34623 ft | 494 kts | 321° |
| 2026-05-05 08:59 | 8.38724 | 124.63239 | 35046 ft | 492 kts | 321° |
| 2026-05-05 09:00 | 8.41441 | 124.61149 | 35436 ft | 491 kts | 326° |
| 2026-05-05 09:00 | 8.44346 | 124.59333 | 35833 ft | 490 kts | 329° |
| 2026-05-05 09:00 | 8.47277 | 124.57596 | 36228 ft | 490 kts | 330° |
| 2026-05-05 09:00 | 8.50236 | 124.55880 | 36608 ft | 489 kts | 330° |
| 2026-05-05 09:01 | 8.53196 | 124.54180 | 37009 ft | 488 kts | 330° |
| 2026-05-05 09:01 | 8.56150 | 124.52488 | 37397 ft | 487 kts | 330° |
| 2026-05-05 09:01 | 8.59095 | 124.50799 | 37780 ft | 486 kts | 330° |
| 2026-05-05 09:01 | 8.62026 | 124.49114 | 38185 ft | 484 kts | 330° |
| 2026-05-05 09:02 | 8.64951 | 124.47430 | 38555 ft | 483 kts | 330° |
| 2026-05-05 09:02 | 8.67852 | 124.45756 | 38854 ft | 482 kts | 330° |
| 2026-05-05 09:02 | 8.70770 | 124.44072 | 39147 ft | 481 kts | 330° |
| 2026-05-05 09:02 | 8.73671 | 124.42396 | 39445 ft | 480 kts | 330° |
| 2026-05-05 09:03 | 8.76566 | 124.40724 | 39717 ft | 479 kts | 330° |
| 2026-05-05 09:03 | 8.82373 | 124.37368 | 39818 ft | 479 kts | 330° |
| 2026-05-05 09:04 | 8.88131 | 124.34041 | 39822 ft | 479 kts | 330° |
| 2026-05-05 09:04 | 8.93922 | 124.30692 | 39820 ft | 479 kts | 330° |
| 2026-05-05 09:05 | 8.99714 | 124.27343 | 39818 ft | 479 kts | 330° |
| 2026-05-05 09:05 | 9.05522 | 124.23985 | 39822 ft | 479 kts | 330° |
| 2026-05-05 09:06 | 9.11309 | 124.20628 | 39835 ft | 479 kts | 330° |
| 2026-05-05 09:06 | 9.17061 | 124.17287 | 39838 ft | 480 kts | 329° |
| 2026-05-05 09:07 | 9.22864 | 124.13917 | 39825 ft | 480 kts | 329° |
| 2026-05-05 09:07 | 9.28668 | 124.10547 | 39826 ft | 480 kts | 329° |
| 2026-05-05 09:08 | 9.34468 | 124.07178 | 39828 ft | 481 kts | 329° |
| 2026-05-05 09:08 | 9.40272 | 124.03816 | 39830 ft | 481 kts | 329° |
| 2026-05-05 09:09 | 9.46081 | 124.00466 | 39828 ft | 482 kts | 329° |
| 2026-05-05 09:09 | 9.51889 | 123.97109 | 39828 ft | 482 kts | 329° |
| 2026-05-05 09:10 | 9.57711 | 123.93724 | 39831 ft | 482 kts | 329° |
| 2026-05-05 09:10 | 9.63539 | 123.90333 | 39828 ft | 482 kts | 329° |
| 2026-05-05 09:11 | 9.69346 | 123.86957 | 39827 ft | 482 kts | 329° |
| 2026-05-05 09:11 | 9.75186 | 123.83561 | 39830 ft | 483 kts | 329° |
| 2026-05-05 09:12 | 9.81021 | 123.80169 | 39829 ft | 483 kts | 329° |
| 2026-05-05 09:12 | 9.86820 | 123.76794 | 39845 ft | 483 kts | 329° |
| 2026-05-05 09:13 | 9.92647 | 123.73403 | 39838 ft | 483 kts | 329° |
| 2026-05-05 09:13 | 9.98494 | 123.69993 | 39837 ft | 484 kts | 329° |
| 2026-05-05 09:14 | 10.04333 | 123.66584 | 39836 ft | 484 kts | 329° |
| 2026-05-05 09:14 | 10.10136 | 123.63195 | 39837 ft | 484 kts | 329° |
| 2026-05-05 09:15 | 10.15981 | 123.59783 | 39838 ft | 484 kts | 329° |
| 2026-05-05 09:15 | 10.21815 | 123.56375 | 39841 ft | 484 kts | 329° |
| 2026-05-05 09:16 | 10.27638 | 123.52972 | 39842 ft | 483 kts | 329° |
| 2026-05-05 09:16 | 10.33455 | 123.49582 | 39841 ft | 483 kts | 329° |
| 2026-05-05 09:17 | 10.39286 | 123.46177 | 39845 ft | 483 kts | 329° |
| 2026-05-05 09:17 | 10.45108 | 123.42774 | 39852 ft | 483 kts | 329° |
| 2026-05-05 09:18 | 10.50919 | 123.39381 | 39848 ft | 482 kts | 329° |
| 2026-05-05 09:18 | 10.56754 | 123.35974 | 39857 ft | 482 kts | 329° |
| 2026-05-05 09:19 | 10.62562 | 123.32579 | 39852 ft | 481 kts | 329° |
| 2026-05-05 09:19 | 10.68313 | 123.29225 | 39854 ft | 479 kts | 329° |
| 2026-05-05 09:20 | 10.74073 | 123.25855 | 39847 ft | 478 kts | 329° |
| 2026-05-05 09:20 | 10.79852 | 123.22482 | 39856 ft | 477 kts | 329° |
| 2026-05-05 09:21 | 10.85587 | 123.19110 | 39854 ft | 476 kts | 328° |
| 2026-05-05 09:21 | 10.91340 | 123.15725 | 39842 ft | 476 kts | 329° |
| 2026-05-05 09:22 | 10.97055 | 123.12370 | 39839 ft | 476 kts | 329° |
| 2026-05-05 09:22 | 11.01863 | 123.09558 | 39843 ft | 476 kts | 328° |
| 2026-05-05 09:23 | 11.07576 | 123.06200 | 39841 ft | 477 kts | 329° |
| 2026-05-05 09:23 | 11.13372 | 123.02790 | 39842 ft | 477 kts | 328° |
| 2026-05-05 09:24 | 11.19068 | 122.99440 | 39838 ft | 478 kts | 329° |
| 2026-05-05 09:24 | 11.24834 | 122.96052 | 39841 ft | 478 kts | 328° |
| 2026-05-05 09:25 | 11.30660 | 122.92624 | 39846 ft | 479 kts | 329° |
| 2026-05-05 09:25 | 11.36396 | 122.89253 | 39849 ft | 479 kts | 329° |
| 2026-05-05 09:26 | 11.42167 | 122.85856 | 39847 ft | 479 kts | 328° |
| 2026-05-05 09:26 | 11.47935 | 122.82453 | 39851 ft | 478 kts | 328° |
| 2026-05-05 09:27 | 11.53677 | 122.79066 | 39851 ft | 478 kts | 328° |
| 2026-05-05 09:27 | 11.59468 | 122.75651 | 39849 ft | 478 kts | 328° |
| 2026-05-05 09:28 | 11.65087 | 122.72109 | 39851 ft | 477 kts | 325° |
| 2026-05-05 09:28 | 11.70586 | 122.68298 | 39857 ft | 477 kts | 324° |
| 2026-05-05 09:29 | 11.76079 | 122.64508 | 39858 ft | 477 kts | 324° |
| 2026-05-05 09:29 | 11.81608 | 122.60757 | 39855 ft | 477 kts | 325° |
| 2026-05-05 09:30 | 11.87148 | 122.57025 | 39856 ft | 477 kts | 325° |
| 2026-05-05 09:30 | 11.92676 | 122.53302 | 39859 ft | 476 kts | 325° |
| 2026-05-05 09:31 | 11.98193 | 122.49582 | 39854 ft | 476 kts | 325° |
| 2026-05-05 09:31 | 12.03722 | 122.45850 | 39850 ft | 476 kts | 325° |
| 2026-05-05 09:32 | 12.09230 | 122.42129 | 39857 ft | 476 kts | 325° |
| 2026-05-05 09:32 | 12.14772 | 122.38385 | 39857 ft | 476 kts | 325° |
| 2026-05-05 09:33 | 12.20288 | 122.34656 | 39858 ft | 475 kts | 325° |
| 2026-05-05 09:33 | 12.25774 | 122.30945 | 39857 ft | 475 kts | 325° |
| 2026-05-05 09:34 | 12.31286 | 122.27215 | 39857 ft | 474 kts | 325° |
| 2026-05-05 09:34 | 12.36787 | 122.23491 | 39861 ft | 474 kts | 324° |
| 2026-05-05 09:35 | 12.42261 | 122.19717 | 39857 ft | 474 kts | 324° |
| 2026-05-05 09:35 | 12.50428 | 122.14025 | 39743 ft | 475 kts | 324° |
| 2026-05-05 09:36 | 12.53168 | 122.12119 | 39513 ft | 478 kts | 324° |
| 2026-05-05 09:36 | 12.55934 | 122.10196 | 39289 ft | 480 kts | 324° |
| 2026-05-05 09:36 | 12.58700 | 122.08273 | 38911 ft | 478 kts | 324° |
| 2026-05-05 09:36 | 12.61445 | 122.06365 | 38304 ft | 477 kts | 324° |
| 2026-05-05 09:37 | 12.64156 | 122.04478 | 37630 ft | 477 kts | 324° |
| 2026-05-05 09:37 | 12.66905 | 122.02566 | 36970 ft | 477 kts | 324° |
| 2026-05-05 09:37 | 12.69646 | 122.00658 | 36307 ft | 477 kts | 324° |
| 2026-05-05 09:37 | 12.72394 | 121.98744 | 35628 ft | 478 kts | 324° |
| 2026-05-05 09:38 | 12.75146 | 121.96829 | 34924 ft | 480 kts | 324° |
| 2026-05-05 09:38 | 12.77923 | 121.94894 | 34251 ft | 481 kts | 324° |
| 2026-05-05 09:38 | 12.80656 | 121.92990 | 33668 ft | 480 kts | 324° |
| 2026-05-05 09:38 | 12.83454 | 121.91040 | 33054 ft | 478 kts | 324° |
| 2026-05-05 09:39 | 12.86190 | 121.89133 | 32497 ft | 476 kts | 324° |
| 2026-05-05 09:39 | 12.88886 | 121.87253 | 31939 ft | 473 kts | 325° |
| 2026-05-05 09:39 | 12.91599 | 121.85361 | 31388 ft | 471 kts | 325° |
| 2026-05-05 09:39 | 12.94306 | 121.83473 | 30822 ft | 469 kts | 325° |
| 2026-05-05 09:40 | 12.97009 | 121.81587 | 30261 ft | 467 kts | 325° |
| 2026-05-05 09:40 | 12.99689 | 121.79717 | 29683 ft | 466 kts | 325° |
| 2026-05-05 09:40 | 13.02362 | 121.77851 | 29083 ft | 463 kts | 325° |
| 2026-05-05 09:40 | 13.05008 | 121.76004 | 28542 ft | 459 kts | 325° |
| 2026-05-05 09:41 | 13.07644 | 121.74163 | 27997 ft | 455 kts | 325° |
| 2026-05-05 09:41 | 13.10247 | 121.72344 | 27460 ft | 452 kts | 325° |
| 2026-05-05 09:41 | 13.12843 | 121.70530 | 26914 ft | 449 kts | 325° |
| 2026-05-05 09:41 | 13.15419 | 121.68730 | 26374 ft | 446 kts | 325° |
| 2026-05-05 09:42 | 13.17981 | 121.66938 | 25833 ft | 444 kts | 325° |
| 2026-05-05 09:42 | 13.20525 | 121.65159 | 25295 ft | 441 kts | 325° |
| 2026-05-05 09:42 | 13.23058 | 121.63387 | 24740 ft | 439 kts | 325° |
| 2026-05-05 09:42 | 13.25579 | 121.61623 | 24187 ft | 438 kts | 325° |
| 2026-05-05 09:43 | 13.28094 | 121.59863 | 23646 ft | 436 kts | 325° |
| 2026-05-05 09:43 | 13.30567 | 121.58131 | 23049 ft | 434 kts | 325° |
| 2026-05-05 09:43 | 13.33051 | 121.56391 | 22451 ft | 431 kts | 325° |
| 2026-05-05 09:43 | 13.35518 | 121.54663 | 21902 ft | 427 kts | 325° |
| 2026-05-05 09:44 | 13.37960 | 121.52951 | 21357 ft | 423 kts | 326° |
| 2026-05-05 09:44 | 13.40386 | 121.51251 | 20791 ft | 420 kts | 326° |
| 2026-05-05 09:44 | 13.42790 | 121.49565 | 20243 ft | 417 kts | 326° |
| 2026-05-05 09:44 | 13.45182 | 121.47887 | 19690 ft | 414 kts | 326° |
| 2026-05-05 09:45 | 13.47547 | 121.46229 | 19345 ft | 406 kts | 326° |
| 2026-05-05 09:45 | 13.49841 | 121.44619 | 19206 ft | 392 kts | 326° |
| 2026-05-05 09:45 | 13.52056 | 121.43065 | 19091 ft | 379 kts | 326° |
| 2026-05-05 09:45 | 13.54201 | 121.41559 | 18917 ft | 368 kts | 326° |
| 2026-05-05 09:46 | 13.56275 | 121.40104 | 18636 ft | 361 kts | 326° |
| 2026-05-05 09:46 | 13.58333 | 121.38655 | 18210 ft | 356 kts | 326° |
| 2026-05-05 09:46 | 13.60303 | 121.37196 | 17544 ft | 345 kts | 324° |
| 2026-05-05 09:46 | 13.62215 | 121.35751 | 17125 ft | 334 kts | 324° |
| 2026-05-05 09:47 | 13.64076 | 121.34350 | 16758 ft | 331 kts | 325° |
| 2026-05-05 09:47 | 13.65940 | 121.32953 | 16401 ft | 329 kts | 325° |
| 2026-05-05 09:47 | 13.67781 | 121.31578 | 16029 ft | 326 kts | 325° |
| 2026-05-05 09:47 | 13.69615 | 121.30209 | 15673 ft | 323 kts | 325° |
| 2026-05-05 09:48 | 13.71407 | 121.28874 | 15322 ft | 321 kts | 325° |
| 2026-05-05 09:48 | 13.73212 | 121.27526 | 14968 ft | 319 kts | 325° |
| 2026-05-05 09:48 | 13.75001 | 121.26192 | 14623 ft | 317 kts | 326° |
| 2026-05-05 09:48 | 13.76779 | 121.24865 | 14276 ft | 315 kts | 326° |
| 2026-05-05 09:49 | 13.78548 | 121.23546 | 13922 ft | 313 kts | 326° |
| 2026-05-05 09:49 | 13.80304 | 121.22235 | 13577 ft | 311 kts | 326° |
| 2026-05-05 09:49 | 13.82040 | 121.20940 | 13292 ft | 306 kts | 326° |
| 2026-05-05 09:49 | 13.83755 | 121.19660 | 13009 ft | 301 kts | 326° |
| 2026-05-05 09:50 | 13.85443 | 121.18399 | 12699 ft | 298 kts | 326° |
| 2026-05-05 09:50 | 13.87113 | 121.17152 | 12374 ft | 297 kts | 326° |
| 2026-05-05 09:50 | 13.88784 | 121.15906 | 12048 ft | 296 kts | 326° |
| 2026-05-05 09:50 | 13.90446 | 121.14665 | 11719 ft | 294 kts | 326° |
| 2026-05-05 09:51 | 13.92103 | 121.13428 | 11409 ft | 293 kts | 326° |
| 2026-05-05 09:51 | 13.93725 | 121.12216 | 11092 ft | 291 kts | 326° |
| 2026-05-05 09:51 | 13.95384 | 121.10977 | 10771 ft | 290 kts | 326° |
| 2026-05-05 09:51 | 13.96987 | 121.09777 | 10456 ft | 289 kts | 326° |
| 2026-05-05 09:52 | 13.98609 | 121.08564 | 10145 ft | 286 kts | 326° |
| 2026-05-05 09:52 | 14.00215 | 121.07363 | 9840 ft | 288 kts | 326° |
| 2026-05-05 09:52 | 14.01889 | 121.06122 | 9652 ft | 301 kts | 326° |
| 2026-05-05 09:52 | 14.03585 | 121.04856 | 9409 ft | 300 kts | 325° |
| 2026-05-05 09:53 | 14.05284 | 121.03583 | 8871 ft | 303 kts | 325° |
| 2026-05-05 09:53 | 14.06982 | 121.02310 | 8445 ft | 302 kts | 325° |
| 2026-05-05 09:53 | 14.08670 | 121.01042 | 8096 ft | 298 kts | 325° |
| 2026-05-05 09:53 | 14.10340 | 120.99791 | 7803 ft | 293 kts | 326° |
| 2026-05-05 09:54 | 14.11962 | 120.98575 | 7602 ft | 284 kts | 325° |
| 2026-05-05 09:54 | 14.13552 | 120.97383 | 7337 ft | 277 kts | 326° |
| 2026-05-05 09:54 | 14.15106 | 120.96223 | 7055 ft | 273 kts | 326° |
| 2026-05-05 09:54 | 14.16636 | 120.95080 | 6756 ft | 270 kts | 326° |
| 2026-05-05 09:55 | 14.18194 | 120.94049 | 6512 ft | 265 kts | 332° |
| 2026-05-05 09:55 | 14.19754 | 120.93121 | 6378 ft | 256 kts | 332° |
| 2026-05-05 09:55 | 14.21269 | 120.92225 | 6228 ft | 247 kts | 332° |
| 2026-05-05 09:55 | 14.22721 | 120.91365 | 6023 ft | 233 kts | 332° |
| 2026-05-05 09:56 | 14.24092 | 120.90557 | 5762 ft | 221 kts | 333° |
| 2026-05-05 09:56 | 14.25412 | 120.89784 | 5509 ft | 216 kts | 333° |
| 2026-05-05 09:56 | 14.26706 | 120.89021 | 5254 ft | 213 kts | 333° |
| 2026-05-05 09:56 | 14.27987 | 120.88268 | 5001 ft | 211 kts | 334° |
| 2026-05-05 09:57 | 14.29249 | 120.87539 | 4841 ft | 203 kts | 334° |
| 2026-05-05 09:57 | 14.30451 | 120.86841 | 4615 ft | 198 kts | 334° |
| 2026-05-05 09:57 | 14.31663 | 120.86141 | 4195 ft | 203 kts | 334° |
| 2026-05-05 09:57 | 14.32895 | 120.85433 | 3888 ft | 204 kts | 334° |
| 2026-05-05 09:58 | 14.34149 | 120.84709 | 3602 ft | 204 kts | 334° |
| 2026-05-05 09:58 | 14.35380 | 120.83996 | 3305 ft | 203 kts | 334° |
| 2026-05-05 09:58 | 14.36609 | 120.83283 | 3054 ft | 201 kts | 334° |
| 2026-05-05 09:58 | 14.37883 | 120.82682 | 2998 ft | 200 kts | 348° |
| 2026-05-05 09:59 | 14.39229 | 120.82669 | 2983 ft | 192 kts | 23° |
| 2026-05-05 09:59 | 14.40346 | 120.83354 | 2995 ft | 185 kts | 45° |
| 2026-05-05 09:59 | 14.41124 | 120.84380 | 3000 ft | 180 kts | 63° |
| 2026-05-05 09:59 | 14.41724 | 120.85489 | 2996 ft | 180 kts | 63° |
| 2026-05-05 10:00 | 14.42368 | 120.86628 | 2875 ft | 182 kts | 63° |
| 2026-05-05 10:00 | 14.42990 | 120.87738 | 2639 ft | 179 kts | 63° |
| 2026-05-05 10:00 | 14.43602 | 120.88850 | 2406 ft | 177 kts | 63° |
| 2026-05-05 10:00 | 14.44213 | 120.89948 | 2169 ft | 175 kts | 63° |
| 2026-05-05 10:01 | 14.44807 | 120.91022 | 1958 ft | 170 kts | 63° |
| 2026-05-05 10:01 | 14.45383 | 120.92063 | 1734 ft | 162 kts | 63° |
| 2026-05-05 10:01 | 14.45921 | 120.93034 | 1525 ft | 148 kts | 62° |
| 2026-05-05 10:01 | 14.46412 | 120.93918 | 1346 ft | 138 kts | 64° |
| 2026-05-05 10:02 | 14.46881 | 120.94768 | 1181 ft | 136 kts | 64° |
| 2026-05-05 10:02 | 14.47353 | 120.95622 | 1007 ft | 136 kts | 64° |
| 2026-05-05 10:02 | 14.47832 | 120.96469 | 833 ft | 137 kts | 64° |
| 2026-05-05 10:02 | 14.48306 | 120.97320 | 723 ft | 138 kts | 62° |
| 2026-05-05 10:03 | 14.48782 | 120.98154 | 517 ft | 135 kts | 64° |
| 2026-05-05 10:03 | 14.49244 | 120.98999 | 333 ft | 136 kts | 64° |
| 2026-05-05 10:03 | 14.49717 | 120.99869 | 203 ft | 141 kts | 64° |
| 2026-05-05 10:03 | 14.50191 | 121.00731 | 70 ft | 128 kts | 62° |
| 2026-05-05 10:04 | 14.50554 | 121.01392 | 65 ft | 85 kts | 60° |
| 2026-05-05 10:04 | 14.50774 | 121.01787 | 64 ft | 42 kts | 60° |
| 2026-05-05 10:04 | 14.50896 | 121.02005 | 68 ft | 33 kts | 59° |
| 2026-05-05 10:04 | 14.51006 | 121.02199 | 68 ft | 30 kts | 52° |
| 2026-05-05 10:05 | 14.51132 | 121.02297 | 70 ft | 15 kts | 24° |
| 2026-05-05 10:05 | 14.51186 | 121.02277 | 67 ft | 6 kts | 289° |
| 2026-05-05 10:05 | 14.51165 | 121.02209 | 65 ft | 13 kts | 239° |
| 2026-05-05 10:05 | 14.51113 | 121.02118 | 65 ft | 17 kts | 239° |
| 2026-05-05 10:06 | 14.51049 | 121.02003 | 68 ft | 20 kts | 240° |
| 2026-05-05 10:06 | 14.50975 | 121.01870 | 66 ft | 23 kts | 240° |
| 2026-05-05 10:06 | 14.50902 | 121.01738 | 64 ft | 7 kts | 241° |
| 2026-05-05 10:06 | 14.50891 | 121.01679 | 69 ft | 12 kts | 284° |
| 2026-05-05 10:07 | 14.50928 | 121.01630 | 64 ft | 13 kts | 315° |
| 2026-05-05 10:07 | 14.50986 | 121.01569 | 67 ft | 13 kts | 315° |
| 2026-05-05 10:07 | 14.51052 | 121.01500 | 69 ft | 5 kts | 315° |
| 2026-05-05 10:07 | 14.51070 | 121.01478 | 73 ft | 6 kts | 296° |
| 2026-05-05 10:08 | 14.51056 | 121.01440 | 66 ft | 7 kts | 230° |
| 2026-05-05 10:08 | 14.51028 | 121.01409 | 48 ft | 0 kts | 226° |
| 2026-05-05 10:09 | 14.47259 | 120.95451 | 1075 ft | 142 kts | 63° |
| 2026-05-05 10:09 | 14.47399 | 120.95702 | 1041 ft | 134 kts | 62° |
| 2026-05-05 10:09 | 14.47798 | 120.96544 | 887 ft | 133 kts | 64° |
| 2026-05-05 10:10 | 14.48279 | 120.97384 | 741 ft | 136 kts | 62° |
| 2026-05-05 10:10 | 14.48769 | 120.98194 | 538 ft | 131 kts | 62° |
| 2026-05-05 10:10 | 14.49233 | 120.99015 | 401 ft | 136 kts | 63° |
| 2026-05-05 10:10 | 14.49711 | 120.99862 | 173 ft | 135 kts | 64° |
| 2026-05-05 10:11 | 14.50167 | 121.00683 | 69 ft | 124 kts | 65° |
| 2026-05-05 10:11 | 14.50526 | 121.01343 | 66 ft | 79 kts | 61° |
| 2026-05-05 10:11 | 14.47306 | 120.95535 | 1065 ft | 138 kts | 63° |
| 2026-05-05 10:11 | 14.47766 | 120.96351 | 873 ft | 130 kts | 64° |
| 2026-05-05 10:12 | 14.48210 | 120.97160 | 741 ft | 130 kts | 64° |
| 2026-05-05 10:12 | 14.48665 | 120.97968 | 554 ft | 130 kts | 64° |
| 2026-05-05 10:12 | 14.49113 | 120.98785 | 420 ft | 135 kts | 64° |
| 2026-05-05 10:12 | 14.49581 | 120.99643 | 219 ft | 136 kts | 65° |
| 2026-05-05 10:13 | 14.50041 | 121.00467 | 64 ft | 128 kts | 63° |
| 2026-05-05 10:13 | 14.50421 | 121.01154 | 67 ft | 92 kts | 59° |
| 2026-05-05 10:13 | 14.47259 | 120.95451 | 1074 ft | 142 kts | 63° |
| 2026-05-05 10:13 | 14.47454 | 120.95801 | 1013 ft | 134 kts | 64° |
| 2026-05-05 10:14 | 14.47909 | 120.96621 | 810 ft | 130 kts | 62° |
| 2026-05-05 10:14 | 14.48356 | 120.97432 | 638 ft | 130 kts | 62° |
| 2026-05-05 10:14 | 14.48805 | 120.98220 | 453 ft | 129 kts | 64° |
| 2026-05-05 10:14 | 14.49266 | 120.99068 | 322 ft | 137 kts | 63° |
| 2026-05-05 10:15 | 14.49733 | 120.99905 | 133 ft | 132 kts | 64° |
| 2026-05-05 10:15 | 14.50166 | 121.00699 | 65 ft | 116 kts | 62° |